Latest Weather Observations for Rottnest Island

IDW60901

Issued at 11:15 pm WST Thursday 24 July 2014 (issued every 10 minutes, with the page automatically refreshed every 10 minutes)

About weather observations | Map of Perth area stations | Latest observations for Perth area | Other Formats
Station Details ID: 009193 Name: ROTTNEST ISLAND Lat: -32.01 Lon: 115.50 Height: 43.1 m
Data from the previous 72 hours. | See also: Recent months at Rottnest Island
Date/Time
WST
Tmp

°C
App
Tmp
°C
Dew
Point
°C
Rel
Hum
%
Delta-T

°C
Wind Press
QNH
hPa
Press
MSL
hPa
Rain
since
9 am
mm
Dir
 
Spd
km/h
Gust
km/h
Spd
kts
Gust
kts
24/11:00pm 15.9 14.6 13.6 86 1.3 NW 13 13 7 7 1020.8 1020.8 0.4
24/10:30pm 15.6 13.0 13.3 86 1.3 NNW 19 24 10 13 1021.0 - 0.4
24/10:00pm 15.9 14.8 13.2 84 1.5 NNW 11 15 6 8 1020.9 1020.9 0.4
24/09:30pm 15.8 15.0 12.9 83 1.6 NNW 9 11 5 6 1020.9 - 0.4
24/09:00pm 15.4 13.9 12.0 80 1.8 NNW 11 15 6 8 1021.1 1021.1 0.4
24/08:30pm 15.8 13.3 11.0 73 2.6 NNW 15 19 8 10 1021.1 - 0.4
24/08:00pm 16.0 13.2 11.4 74 2.5 NW 17 20 9 11 1021.2 1021.2 0.4
24/07:30pm 15.5 13.5 11.5 77 2.2 NW 13 20 7 11 1021.1 - 0.4
24/07:00pm 15.2 11.6 11.8 80 1.8 WNW 22 28 12 15 1021.4 1021.4 0.4
24/06:30pm 16.0 14.9 11.8 76 2.3 NW 9 11 5 6 1021.1 - 0.4
24/06:00pm 15.9 14.8 11.9 77 2.2 NNW 9 11 5 6 1021.1 1021.1 0.4
24/05:30pm 15.8 15.3 12.5 81 1.8 NNE 7 9 4 5 1020.8 - 0.4
24/05:00pm 16.0 15.4 12.2 78 2.1 NNE 7 9 4 5 1020.7 1020.7 0.4
24/04:30pm 16.5 15.7 11.6 73 2.7 NNE 7 9 4 5 1020.6 - 0.4
24/04:00pm 16.9 16.4 12.0 73 2.7 S 6 9 3 5 1020.6 1020.6 0.4
24/03:30pm 16.4 15.3 11.8 74 2.5 SSE 9 11 5 6 1020.5 - 0.4
24/03:00pm 16.6 16.7 12.8 78 2.1 E 4 9 2 5 1020.7 1020.7 0.4
24/02:30pm 15.6 14.3 12.4 81 1.8 ESE 11 15 6 8 1020.6 - 0.4
24/02:00pm 15.2 13.8 11.0 76 2.2 N 9 22 5 12 1021.0 1021.0 0.2
24/01:30pm 16.0 15.2 11.0 72 2.7 NNE 6 13 3 7 1021.0 - 0.0
24/01:00pm 16.6 15.2 10.9 69 3.0 N 9 13 5 7 1021.2 1021.2 0.0
24/12:30pm 17.4 16.5 11.4 68 3.3 N 7 11 4 6 1021.5 - 0.0
24/12:00pm 16.9 16.0 11.4 70 3.0 ESE 7 11 4 6 1021.8 1021.8 0.0
24/11:30am 16.8 15.2 11.5 71 2.9 SE 11 15 6 8 1022.0 - 0.0
24/11:00am 16.4 14.7 11.1 71 2.8 SE 11 17 6 9 1022.1 1022.1 0.0
24/10:30am 16.8 15.2 11.7 72 2.8 ESE 11 15 6 8 1022.1 - 0.0
24/10:00am 17.7 14.4 9.6 59 4.2 SW 17 20 9 11 1022.2 1022.2 0.0
24/09:30am 17.1 13.0 8.8 58 4.3 S 20 26 11 14 1021.9 - 0.0
24/09:00am 16.9 12.7 9.6 62 3.8 S 22 30 12 16 1021.6 1021.6 0.8
24/08:30am 16.8 12.0 10.2 65 3.5 S 26 33 14 18 1021.4 - 0.8
24/08:00am 16.6 11.5 10.7 68 3.1 S 28 35 15 19 1020.9 1020.9 0.8
24/07:30am 16.5 11.9 11.2 71 2.9 S 26 33 14 18 1020.6 - 0.8
24/07:00am 15.9 12.0 12.1 78 2.1 S 24 30 13 16 1020.5 1020.5 0.8
24/06:30am 15.8 10.6 12.9 83 1.6 S 32 41 17 22 1020.2 - 0.8
24/06:00am 16.6 11.0 12.2 75 2.4 SSW 33 39 18 21 1020.0 1020.0 0.8
24/05:30am 16.5 10.8 11.9 74 2.5 SSW 33 41 18 22 1019.7 - 0.8
24/05:00am 16.3 10.1 12.8 80 1.9 SSW 37 46 20 25 1019.6 1019.6 0.8
24/04:30am 16.5 10.8 13.0 80 2.0 SW 35 50 19 27 1019.6 - 0.8
24/04:23am 16.7 11.9 12.8 78 2.2 WSW 30 50 16 27 1019.5 - 0.8
24/04:00am 16.5 12.4 12.8 79 2.1 WSW 26 33 14 18 1019.6 1019.6 0.8
24/03:30am 16.5 12.3 12.5 77 2.2 W 26 33 14 18 1019.7 - 0.8
24/03:00am 16.6 12.1 12.6 77 2.2 WSW 28 37 15 20 1020.0 1020.0 0.8
24/02:30am 16.5 11.9 12.3 76 2.3 W 28 39 15 21 1020.0 - 0.8
24/02:00am 16.4 12.8 12.0 75 2.4 W 22 32 12 17 1020.0 1020.0 0.8
24/01:30am 16.1 12.1 11.7 75 2.4 W 24 33 13 18 1019.9 - 0.8
24/01:00am 15.9 11.5 11.7 76 2.3 W 26 39 14 21 1019.9 1019.9 0.8
24/12:30am 16.1 11.5 11.1 72 2.7 W 26 35 14 19 1020.0 - 0.8
24/12:00am 15.4 11.2 11.0 75 2.3 WSW 24 30 13 16 1020.4 1020.4 0.8
 
Date/Time
WST
Tmp

°C
App
Tmp
°C
Dew
Point
°C
Rel
Hum
%
Delta-T

°C
Wind Press
QNH
hPa
Press
MSL
hPa
Rain
since
9 am
mm
Dir
 
Spd
km/h
Gust
km/h
Spd
kts
Gust
kts
23/11:30pm 15.6 11.3 10.8 73 2.6 W 24 33 13 18 1020.7 - 0.8
23/11:00pm 15.3 10.8 11.5 78 2.0 W 26 32 14 17 1020.8 1020.8 0.8
23/10:30pm 15.4 11.4 10.6 73 2.5 WSW 22 28 12 15 1021.0 - 0.8
23/10:00pm 15.0 10.8 11.0 77 2.1 W 24 35 13 19 1021.0 1021.0 0.8
23/09:30pm 14.9 10.8 10.1 73 2.5 W 22 30 12 16 1021.0 - 0.8
23/09:00pm 14.6 10.5 10.0 74 2.4 WSW 22 26 12 14 1021.1 1021.1 0.8
23/08:30pm 14.7 10.5 9.7 72 2.6 WSW 22 28 12 15 1020.9 - 0.8
23/08:00pm 14.8 10.7 10.0 73 2.5 WSW 22 28 12 15 1021.0 1021.0 0.8
23/07:30pm 14.5 10.7 9.9 74 2.4 WSW 20 26 11 14 1020.9 - 0.8
23/07:00pm 14.5 10.2 9.5 72 2.6 WSW 22 32 12 17 1020.8 1020.8 0.8
23/06:30pm 14.6 10.3 9.4 71 2.7 W 22 28 12 15 1020.6 - 0.8
23/06:00pm 14.2 10.9 9.4 73 2.5 W 17 22 9 12 1020.3 1020.3 0.8
23/05:30pm 14.2 10.5 9.4 73 2.5 W 19 28 10 15 1020.2 - 0.8
23/05:00pm 14.7 10.8 9.5 71 2.7 W 20 30 11 16 1020.5 1020.5 0.8
23/04:30pm 14.7 10.8 9.3 70 2.8 W 20 28 11 15 1020.4 - 0.8
23/04:00pm 15.0 11.1 9.6 70 2.8 W 20 28 11 15 1020.3 1020.3 0.8
23/03:30pm 15.1 11.5 9.7 70 2.8 WSW 19 26 10 14 1020.1 - 0.8
23/03:00pm 14.7 11.1 10.5 76 2.2 W 20 26 11 14 1020.3 1020.3 0.8
23/02:30pm 12.9 7.4 10.4 85 1.3 WNW 30 35 16 19 1020.6 - 0.6
23/02:00pm 12.9 8.9 10.3 84 1.3 W 22 28 12 15 1020.6 1020.6 0.4
23/01:30pm 14.1 8.6 9.3 73 2.5 WNW 28 37 15 20 1020.6 - 0.0
23/01:00pm 15.1 10.5 8.3 64 3.4 WNW 22 28 12 15 1020.9 1020.9 0.0
23/12:30pm 14.6 11.4 11.2 80 1.8 N 19 24 10 13 1021.0 - 0.0
23/12:00pm 13.8 10.9 11.0 83 1.5 N 17 24 9 13 1021.6 1021.6 0.0
23/11:30am 14.1 10.2 10.7 80 1.8 N 22 28 12 15 1021.9 - 0.0
23/11:00am 14.1 10.3 11.1 82 1.6 N 22 28 12 15 1022.2 1022.2 0.0
23/10:30am 13.8 9.9 10.8 82 1.6 N 22 26 12 14 1022.3 - 0.0
23/10:00am 12.4 9.7 10.3 87 1.1 NNE 15 20 8 11 1022.7 1022.7 0.0
23/09:30am 12.9 11.7 11.5 91 0.7 NE 9 15 5 8 1023.1 - 0.0
23/09:00am 11.5 9.5 10.1 91 0.7 ENE 11 13 6 7 1022.5 1022.5 4.4
23/08:30am 11.2 9.5 9.8 91 0.7 ENE 9 13 5 7 1022.2 - 4.2
23/08:00am 10.9 9.1 9.3 90 0.8 E 9 13 5 7 1022.2 1022.2 4.2
23/07:30am 10.8 8.5 9.1 89 0.8 ENE 11 13 6 7 1022.2 - 3.8
23/07:00am 11.0 10.1 9.1 88 0.9 NE 4 7 2 4 1022.0 1022.0 3.2
23/06:30am 10.8 8.5 9.1 89 0.8 NE 11 15 6 8 1021.4 - 3.2
23/06:00am 10.8 8.9 8.9 88 0.9 ENE 9 13 5 7 1021.2 1021.2 3.2
23/05:30am 11.0 10.4 9.1 88 0.9 ENE 2 7 1 4 1021.3 - 3.0
23/05:00am 11.0 9.1 9.1 88 0.9 ENE 9 13 5 7 1021.1 1021.1 2.0
23/04:30am 11.0 9.1 9.1 88 0.9 ENE 9 11 5 6 1021.0 - 2.0
23/04:00am 11.6 9.3 9.0 84 1.3 ESE 11 22 6 12 1021.2 1021.2 1.8
23/03:30am 11.8 9.6 9.2 84 1.3 E 11 15 6 8 1021.2 - 1.8
23/03:00am 11.8 8.7 9.0 83 1.4 ESE 15 19 8 10 1021.2 1021.2 1.8
23/02:30am 12.1 8.3 8.9 81 1.6 ESE 19 32 10 17 1021.3 - 1.8
23/02:00am 13.4 7.8 7.0 65 3.1 S 26 35 14 19 1021.2 1021.2 1.8
23/01:30am 13.8 8.1 6.7 62 3.4 SSW 26 35 14 19 1020.9 - 1.8
23/01:00am 13.4 6.7 7.4 67 2.9 S 32 43 17 23 1020.7 1020.7 1.8
23/12:30am 12.9 7.8 7.6 70 2.6 SSW 24 32 13 17 1021.1 - 1.8
23/12:00am 13.0 6.9 8.3 73 2.3 SSW 30 37 16 20 1021.1 1021.1 1.8
 
Date/Time
WST
Tmp

°C
App
Tmp
°C
Dew
Point
°C
Rel
Hum
%
Delta-T

°C
Wind Press
QNH
hPa
Press
MSL
hPa
Rain
since
9 am
mm
Dir
 
Spd
km/h
Gust
km/h
Spd
kts
Gust
kts
22/11:30pm 12.2 5.3 8.9 80 1.7 S 35 54 19 29 1021.2 - 1.6
22/11:29pm 12.7 6.2 9.0 78 1.9 S 33 54 18 29 1021.1 - 1.6
22/11:00pm 13.0 5.5 9.3 78 1.9 S 39 48 21 26 1021.0 1021.0 1.6
22/10:30pm 12.1 5.0 9.7 85 1.2 S 37 54 20 29 1021.3 - 1.6
22/10:14pm 12.8 6.9 8.9 77 2.0 SSW 30 48 16 26 1021.1 - 1.6
22/10:00pm 12.8 7.5 10.0 83 1.4 S 28 43 15 23 1021.1 1021.1 1.6
22/09:30pm 13.2 7.2 10.0 81 1.7 S 32 39 17 21 1020.9 - 1.2
22/09:00pm 13.2 6.7 10.4 83 1.5 SSW 35 48 19 26 1020.9 1020.9 1.2
22/08:53pm 13.0 6.3 9.8 81 1.6 SSW 35 48 19 26 1021.0 - 1.2
22/08:30pm 12.7 4.8 9.2 79 1.8 SW 41 50 22 27 1021.0 - 1.2
22/08:00pm 13.4 7.1 8.9 74 2.3 WSW 32 52 17 28 1020.8 1020.8 1.2
22/07:30pm 13.3 5.5 8.4 72 2.4 SW 39 48 21 26 1020.5 - 1.2
22/07:00pm 13.5 6.2 8.6 72 2.5 SSW 37 48 20 26 1020.0 1020.0 1.2
22/06:35pm 13.1 5.7 9.9 81 1.6 SSW 39 57 21 31 1019.8 - 1.2
22/06:30pm 13.1 5.2 9.2 77 2.0 SSW 41 57 22 31 1019.6 - 1.2
22/06:00pm 14.1 6.2 7.9 66 3.1 SW 39 46 21 25 1019.3 1019.3 1.2
22/05:30pm 14.2 6.5 7.3 63 3.4 SW 37 50 20 27 1019.1 - 1.2
22/05:00pm 13.8 6.5 8.8 72 2.5 SSW 37 54 20 29 1018.6 1018.6 1.2
22/04:58pm 13.6 6.8 9.1 74 2.3 SSW 35 54 19 29 1018.4 - 1.2
22/04:30pm 14.0 6.1 9.4 74 2.4 SSW 41 52 22 28 1018.2 - 1.2
22/04:05pm 14.4 6.3 8.6 68 2.9 SW 41 50 22 27 1018.1 - 1.2
22/04:00pm 13.1 8.8 9.4 78 1.9 W 22 32 12 17 1018.2 1018.2 1.2
22/03:58pm 12.8 8.9 9.3 79 1.8 W 20 28 11 15 1018.2 - 1.2
22/03:30pm 13.1 4.7 8.8 75 2.2 SW 43 54 23 29 1018.2 - 1.2
22/03:00pm 15.4 7.9 9.3 67 3.1 SW 39 54 21 29 1017.6 1017.6 1.2
22/02:30pm 15.6 7.8 4.9 49 5.0 SW 35 44 19 24 1017.5 - 1.2
22/02:00pm 15.7 7.2 5.0 49 5.1 SW 39 48 21 26 1017.4 1017.4 1.2
22/01:30pm 15.6 7.3 6.1 53 4.6 WSW 39 52 21 28 1017.1 - 1.2
22/01:03pm 14.7 7.0 7.0 60 3.8 SW 37 52 20 28 1017.2 - 1.2
22/01:00pm 14.4 7.2 7.7 64 3.3 S 35 57 19 31 1017.2 1017.2 1.2
22/12:50pm 13.9 6.9 8.5 70 2.7 SSW 35 54 19 29 1016.8 - 1.2
22/12:30pm 15.2 7.6 5.7 53 4.5 SW 35 43 19 23 1017.3 - 1.2
22/12:00pm 14.4 7.2 6.0 57 4.0 SW 33 50 18 27 1017.3 1017.3 1.2
22/11:48am 13.4 6.0 8.3 71 2.5 WSW 37 44 20 24 1017.7 - 1.2
22/11:30am 14.3 7.5 7.8 65 3.2 SSW 33 43 18 23 1017.6 - 1.2
22/11:00am 13.9 7.1 7.7 66 3.1 SSW 33 44 18 24 1017.8 1017.8 1.2
22/10:30am 12.2 5.4 9.2 82 1.5 S 35 44 19 24 1017.6 - 1.2
22/10:03am 11.6 5.8 7.9 78 1.8 SSW 28 48 15 26 1017.8 - 0.8
22/10:00am 12.9 8.0 8.6 75 2.1 S 24 37 13 20 1017.8 1017.8 0.4
22/09:30am 12.8 6.0 7.0 68 2.8 SSW 32 50 17 27 1017.3 - 0.2
22/09:09am 11.7 5.9 8.0 78 1.8 S 28 46 15 25 1017.1 - 0.2
22/09:00am 11.6 6.7 8.5 81 1.5 SSW 24 44 13 24 1017.0 1017.0 15.8
22/08:49am 12.0 6.5 9.0 82 1.5 S 28 46 15 25 1017.0 - 15.4
22/08:30am 11.3 9.1 9.4 88 1.0 ESE 11 20 6 11 1016.7 - 15.4
22/08:00am 10.4 6.3 8.5 88 0.9 SE 20 26 11 14 1016.4 1016.4 14.6
22/07:30am 10.6 6.4 8.2 85 1.2 SE 20 28 11 15 1016.0 - 14.2
22/07:00am 11.0 6.9 8.0 82 1.5 SE 19 28 10 15 1015.3 1015.2 11.0
22/06:30am 11.4 6.6 8.8 84 1.3 S 24 32 13 17 1015.0 - 11.0
22/06:00am 12.4 4.8 8.9 79 1.8 S 39 48 21 26 1013.6 1013.5 11.0
22/05:45am 12.6 6.6 6.9 68 2.7 SSW 28 50 15 27 1013.7 - 10.8
22/05:30am 10.4 5.2 7.3 81 1.5 SW 24 37 13 20 1014.0 - 10.8
22/05:12am 11.5 0.8 6.4 71 2.4 SW 52 70 28 38 1013.9 - 10.0
22/05:02am 11.9 0.6 7.8 76 2.0 SW 57 65 31 35 1013.8 - 10.0
22/05:00am 11.9 3.9 7.4 74 2.2 SW 39 69 21 37 1013.9 1013.8 10.0
22/04:57am 12.6 5.6 6.9 68 2.7 SSW 33 69 18 37 1013.7 - 10.0
22/04:30am 12.5 3.9 6.5 67 2.9 SSW 41 46 22 25 1013.4 - 10.0
22/04:00am 12.2 2.9 7.7 74 2.2 SW 46 54 25 29 1013.3 1013.2 10.0
22/03:30am 11.5 4.7 9.1 85 1.2 WSW 35 43 19 23 1013.4 - 10.0
22/03:23am 11.0 0.4 8.6 85 1.2 WSW 54 72 29 39 1013.5 - 9.2
22/03:10am 12.0 0.5 8.8 81 1.6 WSW 59 70 32 38 1013.1 - 7.8
22/03:07am 13.8 6.4 8.2 69 2.8 SW 37 63 20 34 1012.7 - 7.8
22/03:00am 13.8 6.6 7.8 67 3.0 SW 35 46 19 25 1012.5 1012.4 7.8
22/02:30am 13.7 5.8 7.7 67 3.0 SW 39 50 21 27 1012.2 - 7.8
22/02:00am 13.5 5.3 8.4 71 2.6 WSW 41 56 22 30 1012.3 1012.2 7.8
22/01:30am 13.4 6.3 9.6 78 1.9 SW 37 56 20 30 1012.1 - 7.8
22/01:26am 13.3 7.1 9.2 76 2.1 SW 32 56 17 30 1012.1 - 7.8
22/01:00am 12.9 6.6 9.0 77 2.0 WSW 32 39 17 21 1012.5 1012.4 7.6
22/12:30am 11.8 7.9 9.5 86 1.2 W 20 30 11 16 1012.5 - 7.0
22/12:19am 11.5 5.2 8.9 84 1.3 WSW 32 50 17 27 1012.6 - 6.2
22/12:09am 13.0 5.4 9.1 77 2.0 W 39 50 21 27 1012.5 - 5.0
22/12:00am 13.5 10.2 9.4 76 2.1 WNW 17 22 9 12 1012.2 1012.1 5.0
 
Date/Time
WST
Tmp

°C
App
Tmp
°C
Dew
Point
°C
Rel
Hum
%
Delta-T

°C
Wind Press
QNH
hPa
Press
MSL
hPa
Rain
since
9 am
mm
Dir
 
Spd
km/h
Gust
km/h
Spd
kts
Gust
kts
21/11:30pm 13.1 10.2 9.5 79 1.8 W 15 19 8 10 1012.3 - 5.0

Latest Capital City Observations: Canberra | Sydney | Melbourne | Brisbane | Adelaide | Perth | Hobart | Darwin

Other Formats:

Comma delimited format used in spreadsheet applications
http://www.bom.gov.au/fwo/IDW60901/IDW60901.94602.axf

JavaScript Object Notation format (JSON) in row-major order
http://www.bom.gov.au/fwo/IDW60901/IDW60901.94602.json